Time;durP1;ratioP1;P1;durP2;ratioP2;P2;SDS_P1;SDS_P2;PMS_P1;PMS_P2;Temp;Humidity;BMP_temperature;BMP_pressure;BME280_temperature;BME280_humidity;BME280_pressure;Samples;Min_cycle;Max_cycle;Signal;HPM_P1;HPM_P2
2022/08/11 00:00:45;;;;;;;5.53;2.47;;;16.80;75.30;;;;;;5065135;28;20036;-66
2022/08/11 00:03:12;;;;;;;5.78;2.60;;;16.70;75.60;;;;;;5061922;28;20048;-67
2022/08/11 00:05:50;;;;;;;5.78;2.53;;;16.70;75.60;;;;;;5075291;28;20036;-65
2022/08/11 00:08:24;;;;;;;4.65;2.40;;;16.60;75.60;;;;;;5074244;28;20185;-66
2022/08/11 00:10:58;;;;;;;5.75;2.40;;;16.60;75.80;;;;;;5071143;28;20096;-66
2022/08/11 00:13:41;;;;;;;7.60;2.50;;;16.60;75.80;;;;;;5067793;28;20326;-65
2022/08/11 00:16:20;;;;;;;4.72;2.35;;;16.50;76.20;;;;;;5080957;28;20040;-66
2022/08/11 00:18:50;;;;;;;5.70;2.42;;;16.60;76.00;;;;;;5072719;28;20028;-66
2022/08/11 00:21:17;;;;;;;6.28;2.63;;;16.50;76.40;;;;;;5076468;28;20029;-65
2022/08/11 00:24:00;;;;;;;7.85;2.95;;;16.40;76.60;;;;;;5072999;28;20028;-67
2022/08/11 00:26:28;;;;;;;6.45;2.67;;;16.50;76.30;;;;;;5072897;28;20362;-66
2022/08/11 00:28:55;;;;;;;6.75;2.17;;;16.50;76.10;;;;;;5081137;28;20022;-67
2022/08/11 00:31:27;;;;;;;4.88;2.53;;;16.50;76.40;;;;;;5065430;28;20103;-66
2022/08/11 00:33:57;;;;;;;6.07;2.60;;;16.40;76.60;;;;;;5068741;28;20025;-65
2022/08/11 00:36:38;;;;;;;4.78;2.20;;;16.40;76.80;;;;;;5059100;28;20052;-67
2022/08/11 00:39:05;;;;;;;5.40;2.70;;;16.40;76.70;;;;;;5066365;28;20029;-66
2022/08/11 00:41:46;;;;;;;4.82;2.40;;;16.40;76.90;;;;;;5068865;28;20039;-66
2022/08/11 00:44:23;;;;;;;4.88;2.47;;;16.50;76.80;;;;;;5075310;28;20033;-66
2022/08/11 00:47:22;;;;;;;6.47;2.75;;;16.50;76.80;;;;;;5067170;28;20020;-66
2022/08/11 00:50:03;;;;;;;7.10;2.40;;;16.40;77.00;;;;;;5055699;28;20044;-66
2022/08/11 00:52:54;;;;;;;5.03;2.70;;;16.40;77.10;;;;;;5055930;28;20237;-65
2022/08/11 00:55:29;;;;;;;6.57;2.22;;;16.40;77.20;;;;;;5068891;28;20305;-65
2022/08/11 00:58:49;;;;;;;7.40;2.38;;;16.30;77.40;;;;;;5072156;28;20034;-66
2022/08/11 01:01:14;;;;;;;4.70;2.80;;;16.30;77.50;;;;;;5007204;28;20034;-66
2022/08/11 01:03:43;;;;;;;4.75;2.67;;;16.30;77.30;;;;;;5059306;28;20134;-66
2022/08/11 01:06:39;;;;;;;5.25;2.88;;;16.30;77.50;;;;;;5064812;28;20081;-67
2022/08/11 01:09:26;;;;;;;4.97;2.80;;;16.40;77.30;;;;;;5056229;28;20120;-67
2022/08/11 01:12:10;;;;;;;6.30;3.15;;;16.50;77.20;;;;;;5055793;28;20021;-66
2022/08/11 01:14:54;;;;;;;5.80;3.00;;;16.50;77.40;;;;;;5062466;28;20017;-66
2022/08/11 01:17:25;;;;;;;5.63;3.33;;;16.40;77.40;;;;;;5061467;28;20091;-67
2022/08/11 01:20:31;;;;;;;7.40;2.70;;;16.50;77.30;;;;;;5074177;28;20323;-67
2022/08/11 01:23:35;;;;;;;6.50;3.10;;;16.50;77.60;;;;;;5072242;28;20024;-66
2022/08/11 01:26:28;;;;;;;6.35;2.97;;;16.40;77.70;;;;;;5064570;28;20440;-66
2022/08/11 01:29:14;;;;;;;4.80;2.83;;;16.40;77.60;;;;;;5074383;28;20099;-67
2022/08/11 01:32:04;;;;;;;4.90;2.90;;;16.50;77.50;;;;;;5071814;28;20032;-66
2022/08/11 01:35:21;;;;;;;8.75;2.88;;;16.50;77.50;;;;;;5072502;28;20021;-66
2022/08/11 01:38:24;;;;;;;7.07;2.92;;;16.50;77.60;;;;;;5045953;28;20045;-67
2022/08/11 01:41:08;;;;;;;7.80;3.35;;;16.50;77.60;;;;;;5061832;28;20032;-67
2022/08/11 01:47:49;;;;;;;9.77;3.20;;;16.30;78.30;;;;;;5062912;28;20040;-67
2022/08/11 01:50:10;;;;;;;6.75;2.75;;;16.30;78.50;;;;;;5069082;28;20035;-67
2022/08/11 01:53:00;;;;;;;7.10;3.17;;;16.30;78.30;;;;;;5068849;28;20361;-67
2022/08/11 01:55:56;;;;;;;9.98;3.35;;;16.40;78.10;;;;;;5063963;28;20059;-66
2022/08/11 01:58:42;;;;;;;8.63;2.92;;;16.50;78.00;;;;;;5059298;28;20056;-67
2022/08/11 02:01:32;;;;;;;5.22;3.17;;;16.40;78.20;;;;;;5073142;28;20024;-67
2022/08/11 02:04:24;;;;;;;5.82;3.10;;;16.40;78.20;;;;;;5076803;28;20421;-67
2022/08/11 02:07:08;;;;;;;6.05;3.28;;;16.30;78.40;;;;;;5065766;28;20029;-67
2022/08/11 02:09:58;;;;;;;8.50;3.33;;;16.30;78.70;;;;;;5070121;28;20047;-66
2022/08/11 02:12:45;;;;;;;7.00;3.05;;;16.30;78.60;;;;;;5066711;28;20048;-66
2022/08/11 02:15:35;;;;;;;8.23;2.80;;;16.40;78.50;;;;;;5061560;28;20416;-67
2022/08/11 02:18:20;;;;;;;6.30;2.90;;;16.40;78.50;;;;;;5058243;28;20024;-67
2022/08/11 02:23:50;;;;;;;7.60;3.30;;;16.30;78.60;;;;;;5067489;28;20058;-67
2022/08/11 02:26:27;;;;;;;6.20;2.95;;;16.30;78.90;;;;;;5067792;28;20424;-66
2022/08/11 02:29:26;;;;;;;5.28;3.45;;;16.20;79.00;;;;;;5060463;28;20405;-67
2022/08/11 02:35:18;;;;;;;9.20;3.63;;;16.10;79.30;;;;;;5026137;28;20044;-67
2022/08/11 02:38:18;;;;;;;8.68;3.20;;;16.20;79.30;;;;;;5058429;28;20065;-67
2022/08/11 02:44:19;;;;;;;6.15;3.35;;;16.20;79.30;;;;;;5069861;28;20036;-66
2022/08/11 02:46:57;;;;;;;7.95;3.50;;;16.10;79.40;;;;;;5064854;28;20140;-66
2022/08/11 02:49:55;;;;;;;7.15;3.42;;;16.10;79.50;;;;;;5069407;28;20061;-66
2022/08/11 02:52:48;;;;;;;6.15;2.90;;;16.10;79.50;;;;;;5066570;28;20374;-67
2022/08/11 02:55:25;;;;;;;6.50;3.20;;;16.10;79.60;;;;;;5066797;28;20057;-66
2022/08/11 02:58:02;;;;;;;7.07;3.10;;;16.00;80.00;;;;;;5066569;28;20051;-66
2022/08/11 03:00:34;;;;;;;5.28;3.10;;;15.90;80.20;;;;;;5067413;28;20119;-66
2022/08/11 03:03:39;;;;;;;6.32;2.90;;;15.90;80.30;;;;;;5070197;28;20035;-67
2022/08/11 03:06:23;;;;;;;7.28;3.25;;;15.90;80.50;;;;;;5053565;28;20044;-67
2022/08/11 03:08:57;;;;;;;7.03;3.42;;;15.90;80.50;;;;;;5062365;28;20041;-66
2022/08/11 03:17:45;;;;;;;8.98;3.30;;;15.80;80.60;;;;;;5059723;28;20361;-67
2022/08/11 03:20:23;;;;;;;7.65;3.08;;;15.80;80.90;;;;;;5066000;28;20341;-66
2022/08/11 03:23:24;;;;;;;7.00;3.05;;;15.70;81.00;;;;;;5069579;28;20024;-67
2022/08/11 03:26:11;;;;;;;8.65;3.55;;;15.70;80.90;;;;;;5044739;28;20033;-67
2022/08/11 03:28:55;;;;;;;9.55;3.47;;;15.70;81.00;;;;;;5065330;28;20096;-67
2022/08/11 03:31:44;;;;;;;4.85;3.13;;;15.70;81.00;;;;;;5065764;28;20103;-67
2022/08/11 03:34:20;;;;;;;6.15;3.47;;;15.70;81.10;;;;;;5059455;28;20035;-67
2022/08/11 03:43:18;;;;;;;7.90;3.20;;;15.60;81.30;;;;;;5065672;28;20047;-66
2022/08/11 03:46:07;;;;;;;10.02;3.42;;;15.60;81.40;;;;;;5062561;28;20055;-65
2022/08/11 03:49:07;;;;;;;7.75;3.60;;;15.60;81.30;;;;;;5064158;28;20364;-65
2022/08/11 03:52:03;;;;;;;8.25;3.40;;;15.70;80.90;;;;;;5064721;28;20025;-65
2022/08/11 03:54:47;;;;;;;7.07;3.28;;;15.70;81.10;;;;;;5064933;28;20108;-65
2022/08/11 03:57:25;;;;;;;7.65;3.60;;;15.70;81.00;;;;;;5068714;28;20025;-67
2022/08/11 04:00:13;;;;;;;9.02;3.63;;;15.70;81.10;;;;;;5065705;28;20024;-66
2022/08/11 04:03:16;;;;;;;7.05;4.03;;;15.60;81.20;;;;;;5078448;28;20028;-66
2022/08/11 04:06:18;;;;;;;5.40;3.25;;;15.60;81.20;;;;;;5068098;28;20317;-66
2022/08/11 04:08:54;;;;;;;5.60;3.33;;;15.60;81.60;;;;;;5069253;28;20052;-66
2022/08/11 04:11:42;;;;;;;6.68;3.50;;;15.50;81.50;;;;;;5072926;28;20326;-67
2022/08/11 04:17:37;;;;;;;7.18;3.35;;;15.40;81.70;;;;;;5062893;28;20082;-67
2022/08/11 04:20:48;;;;;;;7.57;3.88;;;15.60;81.60;;;;;;5075759;28;20051;-67
2022/08/11 04:24:08;;;;;;;5.47;3.38;;;15.60;81.30;;;;;;5033340;28;20059;-67
2022/08/11 04:26:55;;;;;;;8.70;3.60;;;15.70;81.10;;;;;;5007170;28;20033;-65
2022/08/11 04:29:40;;;;;;;6.18;3.75;;;15.70;81.20;;;;;;5054194;28;20041;-67
2022/08/11 04:32:18;;;;;;;6.97;3.47;;;15.60;81.30;;;;;;5060798;28;20017;-67
2022/08/11 04:35:11;;;;;;;6.15;3.42;;;15.70;81.40;;;;;;5071979;28;20020;-67
2022/08/11 04:37:48;;;;;;;7.25;3.53;;;15.60;81.50;;;;;;5072188;28;20130;-66
2022/08/11 04:40:52;;;;;;;6.25;3.83;;;15.60;81.60;;;;;;5061377;28;20037;-66
2022/08/11 04:43:55;;;;;;;7.10;3.58;;;15.60;81.60;;;;;;5068332;28;20032;-66
2022/08/11 04:46:48;;;;;;;8.20;3.53;;;15.60;81.70;;;;;;5068451;28;20056;-66
2022/08/11 05:02:10;;;;;;;7.43;3.47;;;15.80;81.40;;;;;;5001817;28;20069;-66
2022/08/11 05:08:04;;;;;;;8.50;3.60;;;15.90;81.30;;;;;;5064019;28;20111;-67
2022/08/11 05:10:56;;;;;;;7.38;3.88;;;16.00;81.20;;;;;;5058925;28;20112;-66
2022/08/11 05:36:51;;;;;;;6.38;3.55;;;16.80;79.40;;;;;;5065395;28;20028;-67
2022/08/11 05:57:01;;;;;;;5.78;3.50;;;17.40;77.70;;;;;;5066778;28;20039;-67
2022/08/11 05:59:31;;;;;;;7.75;3.95;;;17.60;77.60;;;;;;5068084;28;20035;-67
2022/08/11 06:02:04;;;;;;;7.53;3.33;;;17.70;77.30;;;;;;5067188;28;20033;-66
2022/08/11 06:04:31;;;;;;;8.27;3.88;;;17.80;76.50;;;;;;5081631;28;20410;-67
2022/08/11 06:07:05;;;;;;;9.35;3.53;;;17.90;76.20;;;;;;5068549;28;20452;-67
2022/08/11 06:09:35;;;;;;;6.07;3.70;;;18.00;76.10;;;;;;5063460;28;20036;-66
2022/08/11 06:12:09;;;;;;;7.20;3.65;;;18.00;76.20;;;;;;5059222;28;20429;-66
2022/08/11 06:14:43;;;;;;;7.13;3.45;;;18.10;75.80;;;;;;5070012;28;20054;-66
2022/08/11 06:17:09;;;;;;;11.38;3.58;;;18.20;75.90;;;;;;5075585;28;20033;-66
2022/08/11 06:19:39;;;;;;;8.70;3.40;;;18.30;75.80;;;;;;5073168;28;20077;-67
2022/08/11 06:22:09;;;;;;;5.95;3.38;;;18.30;75.30;;;;;;5073735;28;20469;-66
2022/08/11 06:24:41;;;;;;;7.18;3.50;;;18.50;75.40;;;;;;5070044;28;20024;-65
2022/08/11 06:27:07;;;;;;;7.38;3.15;;;18.60;75.30;;;;;;5070080;28;20071;-67
2022/08/11 06:29:40;;;;;;;5.78;2.97;;;18.70;75.10;;;;;;5069340;28;20789;-67
2022/08/11 06:32:11;;;;;;;5.80;3.55;;;18.70;74.30;;;;;;5073666;28;20333;-66
2022/08/11 06:34:58;;;;;;;5.07;3.10;;;18.80;74.20;;;;;;5074843;28;20070;-67
2022/08/11 06:38:03;;;;;;;8.10;3.40;;;19.00;74.00;;;;;;5065961;28;20029;-67
2022/08/11 06:44:11;;;;;;;8.38;3.30;;;19.10;73.20;;;;;;5064911;28;20050;-65
2022/08/11 06:46:53;;;;;;;8.25;3.08;;;19.30;72.80;;;;;;5065668;28;20131;-65
2022/08/11 06:52:18;;;;;;;6.13;3.33;;;19.60;72.10;;;;;;5073081;28;21569;-67
2022/08/11 06:54:55;;;;;;;11.75;3.55;;;19.80;71.60;;;;;;5070967;28;20021;-66
2022/08/11 07:03:00;;;;;;;8.85;3.17;;;20.20;70.30;;;;;;5063570;28;20488;-64
2022/08/11 07:05:46;;;;;;;9.45;3.08;;;20.30;69.20;;;;;;5063807;28;20036;-66
2022/08/11 07:29:15;;;;;;;6.15;3.28;;;21.30;68.30;;;;;;5074735;28;20158;-65
2022/08/11 07:31:52;;;;;;;7.68;3.38;;;21.40;67.40;;;;;;5075442;28;20024;-65
2022/08/11 07:34:31;;;;;;;9.45;3.25;;;21.50;67.40;;;;;;5073217;28;20067;-65
2022/08/11 07:37:13;;;;;;;5.05;2.63;;;21.80;66.80;;;;;;5074205;28;20024;-65
2022/08/11 07:39:43;;;;;;;9.02;3.10;;;21.90;65.80;;;;;;5075594;28;20056;-65
2022/08/11 07:42:14;;;;;;;5.05;2.75;;;22.00;65.40;;;;;;5072658;28;20020;-65
2022/08/11 07:53:03;;;;;;;8.15;2.63;;;23.00;60.90;;;;;;5074467;28;20116;-65
2022/08/11 07:55:30;;;;;;;6.88;2.60;;;24.00;59.50;;;;;;5074490;28;20044;-65
2022/08/11 08:17:49;;;;;;;6.55;2.22;;;28.00;51.00;;;;;;5069095;28;20034;-65
2022/08/11 08:20:18;;;;;;;6.32;2.22;;;28.00;51.20;;;;;;5072565;28;20032;-64
2022/08/11 08:23:06;;;;;;;5.95;2.28;;;28.10;50.70;;;;;;5061695;28;20363;-65
2022/08/11 08:25:33;;;;;;;7.60;1.90;;;28.10;50.90;;;;;;5072256;28;20052;-66
2022/08/11 08:28:04;;;;;;;4.63;1.80;;;28.50;50.30;;;;;;5062008;28;20115;-66
2022/08/11 08:30:46;;;;;;;6.03;1.90;;;28.70;50.40;;;;;;5069326;28;20317;-66
2022/08/11 08:33:24;;;;;;;7.63;2.10;;;29.00;49.30;;;;;;5070905;28;20032;-68
2022/08/11 08:36:10;;;;;;;5.32;2.00;;;28.70;48.30;;;;;;5074111;28;20452;-65
2022/08/11 08:38:40;;;;;;;9.38;2.00;;;28.00;49.00;;;;;;5073137;28;20115;-65
2022/08/11 08:41:07;;;;;;;5.60;2.03;;;28.00;49.30;;;;;;5073664;28;20028;-66
2022/08/11 08:43:36;;;;;;;9.88;2.28;;;28.10;48.60;;;;;;5069519;28;20033;-64
2022/08/11 08:46:07;;;;;;;5.65;2.03;;;28.00;48.80;;;;;;5073590;28;20028;-66
2022/08/11 08:48:34;;;;;;;3.72;1.70;;;27.90;49.10;;;;;;5055275;28;20028;-65
2022/08/11 08:54:05;;;;;;;4.13;1.85;;;29.00;48.50;;;;;;5071696;28;20043;-65
2022/08/11 08:56:33;;;;;;;7.05;2.10;;;29.30;47.70;;;;;;5064780;28;20028;-64
2022/08/11 08:59:00;;;;;;;6.95;1.73;;;29.40;47.70;;;;;;5074182;28;20031;-66
2022/08/11 09:01:31;;;;;;;4.43;1.90;;;29.20;46.30;;;;;;5075585;28;20139;-65
2022/08/11 09:03:57;;;;;;;7.55;1.77;;;28.70;47.10;;;;;;5074325;28;20035;-64
2022/08/11 09:06:23;;;;;;;6.88;1.80;;;28.60;47.80;;;;;;5062867;28;20036;-65
2022/08/11 09:08:49;;;;;;;4.65;1.63;;;28.70;46.80;;;;;;5070046;28;20040;-66
2022/08/11 09:14:05;;;;;;;6.30;1.90;;;29.10;47.60;;;;;;5072975;28;20039;-65
2022/08/11 09:16:31;;;;;;;5.57;1.60;;;29.10;47.10;;;;;;5063442;28;20084;-64
2022/08/11 09:19:00;;;;;;;4.13;1.88;;;29.80;46.00;;;;;;5055068;28;20037;-65
2022/08/11 09:21:26;;;;;;;4.43;1.77;;;30.00;45.30;;;;;;5059778;28;20033;-65
2022/08/11 09:27:13;;;;;;;8.68;1.98;;;30.60;45.40;;;;;;5057166;28;20075;-66
2022/08/11 09:29:33;;;;;;;3.67;1.63;;;30.40;44.90;;;;;;5057948;28;20037;-65
2022/08/11 09:32:00;;;;;;;4.97;1.80;;;30.00;45.50;;;;;;5068466;28;20365;-65
2022/08/11 09:34:29;;;;;;;6.30;1.52;;;30.80;44.90;;;;;;5072166;28;20031;-64
2022/08/11 09:45:16;;;;;;;4.30;1.60;;;30.60;44.60;;;;;;5070747;28;20043;-65
2022/08/11 09:47:43;;;;;;;6.45;1.75;;;30.60;44.40;;;;;;5070467;28;20032;-64
2022/08/11 09:50:14;;;;;;;4.20;1.60;;;30.00;44.90;;;;;;5078106;28;20024;-64
2022/08/11 09:52:49;;;;;;;4.97;1.70;;;29.80;45.00;;;;;;5077044;28;20132;-65
2022/08/11 09:55:16;;;;;;;3.58;1.50;;;29.90;45.60;;;;;;5077160;28;20427;-64
2022/08/11 10:00:39;;;;;;;2.90;1.30;;;29.90;43.90;;;;;;5075989;28;20043;-64
2022/08/11 10:03:25;;;;;;;3.75;1.23;;;30.20;45.90;;;;;;5074406;28;20028;-64
2022/08/11 10:08:46;;;;;;;6.20;1.52;;;30.10;44.40;;;;;;5075884;28;20047;-65
2022/08/11 10:11:20;;;;;;;4.40;1.90;;;30.30;44.70;;;;;;5073257;28;20045;-66
2022/08/11 10:16:38;;;;;;;3.60;1.55;;;30.70;43.90;;;;;;5075788;28;20036;-65
2022/08/11 10:19:07;;;;;;;3.60;1.60;;;31.00;44.90;;;;;;5075189;28;20024;-64
2022/08/11 10:27:22;;;;;;;4.13;1.77;;;31.60;42.90;;;;;;5072610;28;20440;-65
2022/08/11 10:35:25;;;;;;;3.97;1.40;;;31.60;44.10;;;;;;5066104;28;20097;-65
2022/08/11 10:37:52;;;;;;;3.80;1.73;;;31.30;43.40;;;;;;5070237;28;20070;-64
2022/08/11 10:40:21;;;;;;;5.22;1.60;;;31.30;43.20;;;;;;5069303;28;20459;-66
2022/08/11 10:43:02;;;;;;;3.00;1.60;;;30.90;44.90;;;;;;5064156;28;20497;-65
2022/08/11 10:48:25;;;;;;;4.47;1.52;;;31.20;44.00;;;;;;5068860;28;20094;-66
2022/08/11 10:59:13;;;;;;;6.43;1.90;;;30.70;43.50;;;;;;5073098;28;20093;-65
2022/08/11 11:01:42;;;;;;;5.30;1.60;;;31.20;43.80;;;;;;5062427;28;20029;-65
2022/08/11 11:04:23;;;;;;;5.18;1.80;;;31.50;45.00;;;;;;5062074;28;20032;-66
2022/08/11 11:07:13;;;;;;;5.18;1.77;;;31.90;42.90;;;;;;5067137;28;20336;-65
2022/08/11 11:09:52;;;;;;;4.47;1.95;;;31.70;43.50;;;;;;5074647;28;20097;-64
2022/08/11 11:18:13;;;;;;;4.22;1.60;;;31.40;43.80;;;;;;5067746;28;20036;-65
2022/08/11 11:20:50;;;;;;;4.28;1.90;;;31.60;44.50;;;;;;5070299;28;20440;-64
2022/08/11 11:23:38;;;;;;;3.42;1.70;;;31.00;44.20;;;;;;5076472;28;20032;-65
2022/08/11 11:26:24;;;;;;;6.20;1.80;;;31.50;43.30;;;;;;5078732;28;20162;-65
2022/08/11 11:29:04;;;;;;;3.50;1.70;;;31.70;44.30;;;;;;5075206;28;20044;-66
2022/08/11 11:31:36;;;;;;;5.40;1.60;;;31.60;42.80;;;;;;5066216;28;20024;-65
2022/08/11 11:34:22;;;;;;;3.90;1.63;;;31.30;43.50;;;;;;5065839;28;20032;-64
2022/08/11 11:36:57;;;;;;;4.20;1.67;;;31.40;44.20;;;;;;5073444;28;20033;-65
2022/08/11 11:39:28;;;;;;;4.45;1.60;;;31.70;44.60;;;;;;5076284;28;20033;-64
2022/08/11 11:42:04;;;;;;;4.07;1.70;;;32.20;43.30;;;;;;5071773;28;20047;-65
2022/08/11 11:44:31;;;;;;;5.97;2.05;;;32.00;43.10;;;;;;5071211;28;20029;-65
2022/08/11 11:47:00;;;;;;;3.75;1.77;;;31.80;42.50;;;;;;5069916;28;20316;-65
2022/08/11 11:49:28;;;;;;;5.68;1.92;;;31.30;43.30;;;;;;5088751;28;20039;-64
2022/08/11 11:51:56;;;;;;;4.82;1.90;;;30.80;44.00;;;;;;5056883;28;20321;-65
2022/08/11 11:54:28;;;;;;;4.25;1.65;;;30.90;44.80;;;;;;5061028;28;20046;-65
2022/08/11 11:56:55;;;;;;;5.00;1.90;;;31.00;44.30;;;;;;5060105;28;20174;-65
2022/08/11 12:02:11;;;;;;;3.88;1.70;;;31.10;45.10;;;;;;5056376;28;20089;-65
2022/08/11 12:04:39;;;;;;;3.65;1.88;;;30.90;44.60;;;;;;5070546;28;20173;-66
2022/08/11 12:09:52;;;;;;;6.30;1.85;;;30.50;45.30;;;;;;5070111;28;20056;-66
2022/08/11 12:15:03;;;;;;;4.72;1.90;;;30.70;44.90;;;;;;5068749;28;20179;-65
2022/08/11 12:17:34;;;;;;;4.32;1.77;;;30.70;45.60;;;;;;5075154;28;20028;-65
2022/08/11 12:20:00;;;;;;;4.97;1.80;;;30.90;44.90;;;;;;5072976;28;20025;-66
2022/08/11 12:27:55;;;;;;;5.20;2.03;;;30.80;46.80;;;;;;5069983;28;20543;-66
2022/08/11 12:30:21;;;;;;;4.53;1.80;;;31.30;44.50;;;;;;5062904;28;20032;-65
2022/08/11 12:32:49;;;;;;;3.60;1.63;;;31.20;43.80;;;;;;5069809;28;20103;-65
2022/08/11 12:35:18;;;;;;;6.63;2.22;;;31.40;44.70;;;;;;5071768;28;20094;-65
2022/08/11 12:37:47;;;;;;;4.82;1.70;;;31.30;43.50;;;;;;5075324;28;20362;-66
2022/08/11 12:45:57;;;;;;;4.80;1.73;;;31.10;45.00;;;;;;5073142;28;20039;-65
2022/08/11 12:54:37;;;;;;;4.85;1.75;;;31.80;44.00;;;;;;5059978;28;20036;-64
2022/08/11 13:05:43;;;;;;;5.05;2.40;;;31.90;42.90;;;;;;5009903;28;20040;-66
2022/08/11 13:08:09;;;;;;;5.60;1.80;;;31.60;44.00;;;;;;5038711;28;20045;-65
2022/08/11 13:13:23;;;;;;;5.85;1.88;;;32.10;43.70;;;;;;5063100;28;20086;-64
2022/08/11 13:15:50;;;;;;;7.43;1.77;;;32.50;42.70;;;;;;5065462;28;20049;-64
2022/08/11 13:18:22;;;;;;;7.03;1.80;;;32.70;41.70;;;;;;5055838;28;20299;-65
2022/08/11 13:20:57;;;;;;;4.72;1.48;;;33.00;42.40;;;;;;5056160;28;20119;-66
2022/08/11 13:23:24;;;;;;;4.25;1.60;;;33.20;42.40;;;;;;5055224;28;20101;-65
2022/08/11 13:25:55;;;;;;;3.55;1.50;;;33.00;43.30;;;;;;5073995;28;20024;-64
2022/08/11 13:28:22;;;;;;;4.90;1.70;;;33.40;42.10;;;;;;5075146;28;20460;-65
2022/08/11 13:33:42;;;;;;;3.53;1.60;;;33.50;41.20;;;;;;5064741;28;20025;-65
2022/08/11 13:36:09;;;;;;;4.57;1.50;;;33.10;41.20;;;;;;5067248;28;20048;-64
2022/08/11 13:38:37;;;;;;;4.22;1.67;;;33.10;41.70;;;;;;5075677;28;20316;-64
2022/08/11 13:41:36;;;;;;;5.47;2.00;;;33.10;41.70;;;;;;5063827;28;20027;-64
2022/08/11 13:43:50;;;;;;;5.00;1.70;;;33.50;41.60;;;;;;5070760;28;20037;-65
2022/08/11 13:46:19;;;;;;;5.97;1.80;;;33.80;41.50;;;;;;5055116;28;20033;-65
2022/08/11 13:48:45;;;;;;;4.35;1.77;;;33.70;41.20;;;;;;5065479;28;20063;-65
2022/08/11 13:54:30;;;;;;;4.75;1.80;;;33.70;41.70;;;;;;5074397;28;20039;-64
2022/08/11 13:57:00;;;;;;;6.07;2.17;;;33.70;41.40;;;;;;5059490;28;20048;-64
2022/08/11 13:59:27;;;;;;;5.03;1.80;;;34.00;40.90;;;;;;5075276;28;20029;-65
2022/08/11 14:01:56;;;;;;;5.15;1.67;;;34.20;41.00;;;;;;5071603;28;20036;-65
2022/08/11 14:04:32;;;;;;;6.05;1.70;;;34.20;40.70;;;;;;5075171;28;20070;-66
2022/08/11 14:06:59;;;;;;;4.07;1.70;;;34.30;40.20;;;;;;5063796;28;20036;-66
2022/08/11 14:09:31;;;;;;;3.13;1.50;;;34.20;41.00;;;;;;5049921;28;20055;-65
2022/08/11 14:14:55;;;;;;;5.05;1.60;;;34.60;40.60;;;;;;5052004;28;20128;-64
2022/08/11 14:17:22;;;;;;;5.32;2.10;;;34.10;40.20;;;;;;5046738;28;20130;-64
2022/08/11 14:19:52;;;;;;;4.68;1.85;;;34.20;40.60;;;;;;5050694;28;20040;-65
2022/08/11 14:22:20;;;;;;;5.63;1.85;;;34.30;40.30;;;;;;5048066;28;20036;-65
2022/08/11 14:24:50;;;;;;;4.47;1.45;;;34.30;40.20;;;;;;5055454;28;20409;-65
2022/08/11 14:27:17;;;;;;;4.78;1.90;;;34.20;41.20;;;;;;5068952;28;20029;-66
2022/08/11 14:29:45;;;;;;;2.80;1.50;;;35.00;40.30;;;;;;5051394;28;20900;-66
2022/08/11 14:32:12;;;;;;;4.38;1.70;;;35.70;38.80;;;;;;5065497;28;20048;-65
2022/08/11 14:34:41;;;;;;;4.22;1.92;;;35.70;39.40;;;;;;5074069;28;20483;-66
2022/08/11 14:37:22;;;;;;;6.68;1.80;;;35.40;40.30;;;;;;5066823;28;20120;-65
2022/08/11 14:39:58;;;;;;;4.35;1.80;;;35.80;39.90;;;;;;5052192;28;20329;-65
2022/08/11 14:48:04;;;;;;;8.18;1.80;;;35.10;39.40;;;;;;5053778;28;20047;-66
2022/08/11 14:50:32;;;;;;;5.25;1.60;;;34.90;39.80;;;;;;5076256;28;20032;-65
2022/08/11 14:53:04;;;;;;;4.72;1.60;;;35.20;40.40;;;;;;5068188;28;20029;-66
2022/08/11 14:58:22;;;;;;;8.20;1.98;;;35.70;39.50;;;;;;5056901;28;20048;-65
2022/08/11 15:00:53;;;;;;;5.43;1.83;;;35.50;39.10;;;;;;5054844;28;20027;-65
2022/08/11 15:03:20;;;;;;;5.18;2.25;;;35.00;39.90;;;;;;5058785;28;20027;-65
2022/08/11 15:06:01;;;;;;;4.63;2.10;;;34.60;39.50;;;;;;5051032;28;20028;-65
2022/08/11 15:14:08;;;;;;;5.78;2.38;;;35.60;39.70;;;;;;5056926;28;20321;-65
2022/08/11 15:19:31;;;;;;;3.80;1.92;;;36.10;38.50;;;;;;5050600;28;20801;-66
2022/08/11 15:24:43;;;;;;;4.60;1.60;;;36.10;37.70;;;;;;5046961;28;20032;-65
2022/08/11 15:38:21;;;;;;;6.75;1.83;;;36.60;38.00;;;;;;5066585;28;20097;-66
2022/08/11 15:46:44;;;;;;;4.63;1.70;;;35.70;38.80;;;;;;5056138;28;20310;-66
2022/08/11 15:49:11;;;;;;;;;;;35.30;38.30;;;;;;5064926;28;20413;-66
2022/08/11 15:51:44;;;;;;;5.43;1.58;;;35.40;38.00;;;;;;5080125;28;20362;-66
2022/08/11 15:54:15;;;;;;;5.38;1.70;;;35.80;38.10;;;;;;5066709;28;20028;-66
2022/08/11 15:56:48;;;;;;;4.88;1.88;;;36.20;37.70;;;;;;5054728;28;20110;-65
2022/08/11 16:04:10;;;;;;;4.25;1.67;;;36.00;38.50;;;;;;5052578;28;19931;-66
2022/08/11 16:05:05;;;;;;;5.35;1.80;;;36.10;38.30;;;;;;5045472;28;20040;-66
2022/08/11 16:07:34;;;;;;;5.30;1.88;;;35.40;39.40;;;;;;5061989;28;20067;-65
2022/08/11 16:10:09;;;;;;;6.15;1.95;;;35.80;38.40;;;;;;5050024;28;20039;-66
2022/08/11 16:12:41;;;;;;;3.80;1.73;;;35.90;39.90;;;;;;5048260;28;20119;-66
2022/08/11 16:18:10;;;;;;;13.20;2.30;;;37.40;37.00;;;;;;4990836;28;20109;-64
2022/08/11 16:20:36;;;;;;;7.72;2.15;;;37.30;36.80;;;;;;5042243;28;20063;-65
2022/08/11 16:23:04;;;;;;;4.97;1.50;;;37.80;37.20;;;;;;5051206;28;20037;-65
2022/08/11 16:25:33;;;;;;;5.10;1.90;;;37.90;37.10;;;;;;5050565;28;20107;-65
2022/08/11 16:28:04;;;;;;;5.03;1.60;;;37.10;36.80;;;;;;5056184;28;20568;-65
2022/08/11 16:30:35;;;;;;;4.93;1.70;;;36.80;37.30;;;;;;5048054;28;20039;-65
2022/08/11 16:33:05;;;;;;;3.53;1.65;;;36.70;38.00;;;;;;5049737;28;20115;-64
2022/08/11 16:38:34;;;;;;;2.97;1.60;;;36.70;37.80;;;;;;5051144;28;20530;-65
2022/08/11 16:41:04;;;;;;;4.07;1.65;;;36.30;38.10;;;;;;5060401;28;20024;-65
2022/08/11 16:49:09;;;;;;;5.68;1.90;;;35.10;38.20;;;;;;5050703;28;19928;-65
2022/08/11 16:51:35;;;;;;;5.32;1.98;;;34.30;39.10;;;;;;5069806;28;20031;-65
2022/08/11 16:54:02;;;;;;;6.40;1.80;;;34.50;39.60;;;;;;5053176;28;20029;-65
2022/08/11 16:56:35;;;;;;;4.15;1.60;;;35.20;38.60;;;;;;5053963;28;20025;-65
2022/08/11 16:59:13;;;;;;;5.55;1.60;;;35.30;38.40;;;;;;5046850;28;20602;-65
2022/08/11 17:01:55;;;;;;;3.75;1.65;;;35.00;39.30;;;;;;5050268;28;20031;-65
2022/08/11 17:13:15;;;;;;;4.82;1.52;;;36.20;37.80;;;;;;5006850;28;20044;-66
2022/08/11 17:18:41;;;;;;;5.68;2.20;;;35.00;38.20;;;;;;5011691;28;20159;-66
2022/08/11 17:21:28;;;;;;;4.80;1.85;;;33.70;39.40;;;;;;5021663;28;20441;-66
2022/08/11 17:23:59;;;;;;;5.97;1.88;;;33.20;40.30;;;;;;5007422;28;20065;-66
2022/08/11 17:29:38;;;;;;;6.70;1.75;;;33.90;38.60;;;;;;5009973;28;20116;-66
2022/08/11 17:37:44;;;;;;;5.10;1.65;;;33.60;39.00;;;;;;5010128;28;20044;-66
2022/08/11 17:40:13;;;;;;;4.35;1.80;;;33.30;40.30;;;;;;5017479;28;20380;-66
2022/08/11 17:48:31;;;;;;;5.60;1.88;;;32.70;40.80;;;;;;5009781;28;20127;-66
2022/08/11 17:51:04;;;;;;;5.45;1.80;;;32.20;42.00;;;;;;5017493;28;20040;-66
2022/08/11 18:01:54;;;;;;;4.47;1.83;;;31.60;41.90;;;;;;5008600;28;20520;-65
2022/08/11 18:04:22;;;;;;;4.45;1.70;;;30.90;42.80;;;;;;5013596;28;21223;-65
2022/08/11 18:06:49;;;;;;;4.82;1.90;;;30.50;43.70;;;;;;5007268;28;20087;-66
